sensor_id;sensor_type;location;lat;lon;timestamp;P1;durP1;ratioP1;P2;durP2;ratioP2
2031;SDS011;27625;50.422;7.944;2023-04-24T00:02:38;5.30;;;2.40;;
2031;SDS011;27625;50.422;7.944;2023-04-24T00:05:06;3.43;;;2.50;;
2031;SDS011;27625;50.422;7.944;2023-04-24T00:07:34;3.80;;;2.20;;
2031;SDS011;27625;50.422;7.944;2023-04-24T00:10:16;2.90;;;2.20;;
2031;SDS011;27625;50.422;7.944;2023-04-24T00:12:42;4.87;;;2.63;;
2031;SDS011;27625;50.422;7.944;2023-04-24T00:15:10;3.27;;;2.23;;
2031;SDS011;27625;50.422;7.944;2023-04-24T00:17:44;3.00;;;2.10;;
2031;SDS011;27625;50.422;7.944;2023-04-24T00:20:12;3.47;;;2.00;;
2031;SDS011;27625;50.422;7.944;2023-04-24T00:22:42;4.63;;;2.20;;
2031;SDS011;27625;50.422;7.944;2023-04-24T00:25:10;4.13;;;2.10;;
2031;SDS011;27625;50.422;7.944;2023-04-24T00:27:37;3.17;;;2.10;;
2031;SDS011;27625;50.422;7.944;2023-04-24T00:30:10;3.03;;;2.00;;
2031;SDS011;27625;50.422;7.944;2023-04-24T00:32:37;2.70;;;2.00;;
2031;SDS011;27625;50.422;7.944;2023-04-24T00:35:08;8.83;;;2.10;;
2031;SDS011;27625;50.422;7.944;2023-04-24T00:37:40;5.53;;;2.10;;
2031;SDS011;27625;50.422;7.944;2023-04-24T00:40:08;2.80;;;1.43;;
2031;SDS011;27625;50.422;7.944;2023-04-24T00:42:42;2.60;;;1.57;;
2031;SDS011;27625;50.422;7.944;2023-04-24T00:45:12;2.63;;;1.83;;
2031;SDS011;27625;50.422;7.944;2023-04-24T00:47:40;3.50;;;1.80;;
2031;SDS011;27625;50.422;7.944;2023-04-24T00:50:11;2.60;;;1.90;;
2031;SDS011;27625;50.422;7.944;2023-04-24T00:52:40;7.27;;;2.17;;
2031;SDS011;27625;50.422;7.944;2023-04-24T00:55:08;3.00;;;1.77;;
2031;SDS011;27625;50.422;7.944;2023-04-24T00:57:43;2.70;;;1.90;;
2031;SDS011;27625;50.422;7.944;2023-04-24T01:00:11;4.40;;;1.77;;
2031;SDS011;27625;50.422;7.944;2023-04-24T01:02:39;3.20;;;2.10;;
2031;SDS011;27625;50.422;7.944;2023-04-24T01:05:11;3.53;;;2.43;;
2031;SDS011;27625;50.422;7.944;2023-04-24T01:07:39;4.17;;;2.83;;
2031;SDS011;27625;50.422;7.944;2023-04-24T01:10:16;3.80;;;3.10;;
2031;SDS011;27625;50.422;7.944;2023-04-24T01:12:47;3.57;;;2.60;;
2031;SDS011;27625;50.422;7.944;2023-04-24T01:15:23;5.10;;;2.50;;
2031;SDS011;27625;50.422;7.944;2023-04-24T01:17:50;4.00;;;2.83;;
2031;SDS011;27625;50.422;7.944;2023-04-24T01:20:18;3.67;;;2.90;;
2031;SDS011;27625;50.422;7.944;2023-04-24T01:22:47;5.57;;;3.47;;
2031;SDS011;27625;50.422;7.944;2023-04-24T01:25:24;4.50;;;3.10;;
2031;SDS011;27625;50.422;7.944;2023-04-24T01:27:53;5.13;;;3.27;;
2031;SDS011;27625;50.422;7.944;2023-04-24T01:30:20;3.57;;;3.00;;
2031;SDS011;27625;50.422;7.944;2023-04-24T01:32:49;3.40;;;2.30;;
2031;SDS011;27625;50.422;7.944;2023-04-24T01:35:17;5.03;;;2.80;;
2031;SDS011;27625;50.422;7.944;2023-04-24T01:37:45;3.87;;;2.90;;
2031;SDS011;27625;50.422;7.944;2023-04-24T01:40:14;5.37;;;2.90;;
2031;SDS011;27625;50.422;7.944;2023-04-24T01:42:40;5.10;;;2.80;;
2031;SDS011;27625;50.422;7.944;2023-04-24T01:45:08;3.60;;;2.40;;
2031;SDS011;27625;50.422;7.944;2023-04-24T01:47:37;3.57;;;2.80;;
2031;SDS011;27625;50.422;7.944;2023-04-24T01:50:10;6.00;;;2.50;;
2031;SDS011;27625;50.422;7.944;2023-04-24T01:52:41;5.93;;;3.00;;
2031;SDS011;27625;50.422;7.944;2023-04-24T01:57:40;3.70;;;2.50;;
2031;SDS011;27625;50.422;7.944;2023-04-24T02:00:07;4.10;;;3.10;;
2031;SDS011;27625;50.422;7.944;2023-04-24T02:02:41;5.93;;;2.50;;
2031;SDS011;27625;50.422;7.944;2023-04-24T02:05:09;6.57;;;2.57;;
2031;SDS011;27625;50.422;7.944;2023-04-24T02:07:43;3.53;;;2.50;;
2031;SDS011;27625;50.422;7.944;2023-04-24T02:10:10;4.60;;;2.20;;
2031;SDS011;27625;50.422;7.944;2023-04-24T02:12:49;2.73;;;2.00;;
2031;SDS011;27625;50.422;7.944;2023-04-24T02:15:16;3.20;;;2.20;;
2031;SDS011;27625;50.422;7.944;2023-04-24T02:17:43;3.87;;;2.10;;
2031;SDS011;27625;50.422;7.944;2023-04-24T02:20:10;5.63;;;2.30;;
2031;SDS011;27625;50.422;7.944;2023-04-24T02:22:37;2.70;;;2.00;;
2031;SDS011;27625;50.422;7.944;2023-04-24T02:25:04;3.27;;;2.50;;
2031;SDS011;27625;50.422;7.944;2023-04-24T02:27:31;6.00;;;2.13;;
2031;SDS011;27625;50.422;7.944;2023-04-24T02:29:59;3.40;;;2.13;;
2031;SDS011;27625;50.422;7.944;2023-04-24T02:32:26;2.80;;;2.27;;
2031;SDS011;27625;50.422;7.944;2023-04-24T02:34:53;3.40;;;2.07;;
2031;SDS011;27625;50.422;7.944;2023-04-24T02:37:20;5.00;;;3.53;;
2031;SDS011;27625;50.422;7.944;2023-04-24T02:39:47;3.57;;;2.60;;
2031;SDS011;27625;50.422;7.944;2023-04-24T02:42:20;3.67;;;2.43;;
2031;SDS011;27625;50.422;7.944;2023-04-24T02:44:46;2.70;;;2.30;;
2031;SDS011;27625;50.422;7.944;2023-04-24T02:47:15;3.77;;;2.30;;
2031;SDS011;27625;50.422;7.944;2023-04-24T02:49:42;3.27;;;2.23;;
2031;SDS011;27625;50.422;7.944;2023-04-24T02:52:11;4.13;;;2.50;;
2031;SDS011;27625;50.422;7.944;2023-04-24T02:54:41;3.90;;;2.20;;
2031;SDS011;27625;50.422;7.944;2023-04-24T02:57:10;2.80;;;2.03;;
2031;SDS011;27625;50.422;7.944;2023-04-24T02:59:40;3.50;;;2.20;;
2031;SDS011;27625;50.422;7.944;2023-04-24T03:02:07;3.63;;;2.40;;
2031;SDS011;27625;50.422;7.944;2023-04-24T03:04:36;3.90;;;2.80;;
2031;SDS011;27625;50.422;7.944;2023-04-24T03:07:05;3.63;;;2.53;;
2031;SDS011;27625;50.422;7.944;2023-04-24T03:09:31;4.30;;;2.60;;
2031;SDS011;27625;50.422;7.944;2023-04-24T03:12:00;6.07;;;2.80;;
2031;SDS011;27625;50.422;7.944;2023-04-24T03:14:27;3.20;;;2.37;;
2031;SDS011;27625;50.422;7.944;2023-04-24T03:16:56;6.10;;;2.80;;
2031;SDS011;27625;50.422;7.944;2023-04-24T03:19:23;3.67;;;2.90;;
2031;SDS011;27625;50.422;7.944;2023-04-24T03:22:02;3.80;;;2.70;;
2031;SDS011;27625;50.422;7.944;2023-04-24T03:24:30;4.47;;;2.90;;
2031;SDS011;27625;50.422;7.944;2023-04-24T03:26:58;3.53;;;2.80;;
2031;SDS011;27625;50.422;7.944;2023-04-24T03:29:51;3.40;;;2.63;;
2031;SDS011;27625;50.422;7.944;2023-04-24T03:32:22;3.43;;;2.63;;
2031;SDS011;27625;50.422;7.944;2023-04-24T03:34:49;3.57;;;2.70;;
2031;SDS011;27625;50.422;7.944;2023-04-24T03:37:17;3.10;;;2.50;;
2031;SDS011;27625;50.422;7.944;2023-04-24T03:39:52;4.37;;;2.60;;
2031;SDS011;27625;50.422;7.944;2023-04-24T03:42:23;3.10;;;2.63;;
2031;SDS011;27625;50.422;7.944;2023-04-24T03:44:54;3.37;;;2.60;;
2031;SDS011;27625;50.422;7.944;2023-04-24T03:47:24;4.77;;;2.53;;
2031;SDS011;27625;50.422;7.944;2023-04-24T03:49:55;3.40;;;2.70;;
2031;SDS011;27625;50.422;7.944;2023-04-24T03:52:24;3.87;;;2.80;;
2031;SDS011;27625;50.422;7.944;2023-04-24T03:54:53;4.90;;;3.20;;
2031;SDS011;27625;50.422;7.944;2023-04-24T03:57:21;3.80;;;3.00;;
2031;SDS011;27625;50.422;7.944;2023-04-24T04:00:02;3.20;;;2.57;;
2031;SDS011;27625;50.422;7.944;2023-04-24T04:02:41;4.30;;;3.27;;
2031;SDS011;27625;50.422;7.944;2023-04-24T04:05:09;5.07;;;3.40;;
2031;SDS011;27625;50.422;7.944;2023-04-24T04:07:39;4.70;;;3.57;;
2031;SDS011;27625;50.422;7.944;2023-04-24T04:10:07;5.07;;;3.53;;
2031;SDS011;27625;50.422;7.944;2023-04-24T04:12:36;4.23;;;3.53;;
2031;SDS011;27625;50.422;7.944;2023-04-24T04:15:04;4.00;;;3.20;;
2031;SDS011;27625;50.422;7.944;2023-04-24T04:17:32;4.90;;;3.63;;
2031;SDS011;27625;50.422;7.944;2023-04-24T04:20:00;4.33;;;3.37;;
2031;SDS011;27625;50.422;7.944;2023-04-24T04:22:32;6.20;;;4.07;;
2031;SDS011;27625;50.422;7.944;2023-04-24T04:25:03;4.77;;;4.10;;
2031;SDS011;27625;50.422;7.944;2023-04-24T04:27:32;5.10;;;4.07;;
2031;SDS011;27625;50.422;7.944;2023-04-24T04:30:05;5.00;;;4.00;;
2031;SDS011;27625;50.422;7.944;2023-04-24T04:32:45;6.20;;;4.50;;
2031;SDS011;27625;50.422;7.944;2023-04-24T04:35:12;7.87;;;4.57;;
2031;SDS011;27625;50.422;7.944;2023-04-24T04:37:47;4.97;;;4.40;;
2031;SDS011;27625;50.422;7.944;2023-04-24T04:40:40;7.33;;;5.30;;
2031;SDS011;27625;50.422;7.944;2023-04-24T04:43:23;7.23;;;4.97;;
2031;SDS011;27625;50.422;7.944;2023-04-24T04:45:53;7.90;;;5.30;;
2031;SDS011;27625;50.422;7.944;2023-04-24T04:48:39;5.23;;;4.67;;
2031;SDS011;27625;50.422;7.944;2023-04-24T04:51:06;8.43;;;4.10;;
2031;SDS011;27625;50.422;7.944;2023-04-24T04:53:39;8.10;;;4.80;;
2031;SDS011;27625;50.422;7.944;2023-04-24T04:56:14;4.83;;;4.17;;
2031;SDS011;27625;50.422;7.944;2023-04-24T04:58:44;5.20;;;4.40;;
2031;SDS011;27625;50.422;7.944;2023-04-24T05:01:14;5.13;;;4.00;;
2031;SDS011;27625;50.422;7.944;2023-04-24T05:03:45;5.87;;;4.50;;
2031;SDS011;27625;50.422;7.944;2023-04-24T05:06:20;5.10;;;4.10;;
2031;SDS011;27625;50.422;7.944;2023-04-24T05:08:54;6.63;;;4.10;;
2031;SDS011;27625;50.422;7.944;2023-04-24T05:11:43;5.87;;;4.23;;
2031;SDS011;27625;50.422;7.944;2023-04-24T05:14:10;4.20;;;3.70;;
2031;SDS011;27625;50.422;7.944;2023-04-24T05:16:39;6.20;;;4.37;;
2031;SDS011;27625;50.422;7.944;2023-04-24T05:19:08;7.40;;;4.73;;
2031;SDS011;27625;50.422;7.944;2023-04-24T05:21:39;4.87;;;4.17;;
2031;SDS011;27625;50.422;7.944;2023-04-24T05:24:08;4.63;;;3.50;;
2031;SDS011;27625;50.422;7.944;2023-04-24T05:26:56;5.33;;;3.80;;
2031;SDS011;27625;50.422;7.944;2023-04-24T05:29:33;5.53;;;4.10;;
2031;SDS011;27625;50.422;7.944;2023-04-24T05:32:04;4.77;;;3.60;;
2031;SDS011;27625;50.422;7.944;2023-04-24T05:34:31;5.17;;;4.37;;
2031;SDS011;27625;50.422;7.944;2023-04-24T05:36:57;6.40;;;4.97;;
2031;SDS011;27625;50.422;7.944;2023-04-24T05:39:26;6.63;;;4.83;;
2031;SDS011;27625;50.422;7.944;2023-04-24T05:41:53;5.60;;;4.57;;
2031;SDS011;27625;50.422;7.944;2023-04-24T05:46:57;8.70;;;4.60;;
2031;SDS011;27625;50.422;7.944;2023-04-24T05:49:29;8.60;;;4.47;;
2031;SDS011;27625;50.422;7.944;2023-04-24T05:51:58;6.30;;;5.00;;
2031;SDS011;27625;50.422;7.944;2023-04-24T05:57:08;6.60;;;4.80;;
2031;SDS011;27625;50.422;7.944;2023-04-24T06:02:44;5.50;;;4.90;;
2031;SDS011;27625;50.422;7.944;2023-04-24T06:05:13;6.00;;;4.83;;
2031;SDS011;27625;50.422;7.944;2023-04-24T06:07:41;5.60;;;4.87;;
2031;SDS011;27625;50.422;7.944;2023-04-24T06:10:13;7.63;;;4.93;;
2031;SDS011;27625;50.422;7.944;2023-04-24T06:18:01;6.07;;;5.30;;
2031;SDS011;27625;50.422;7.944;2023-04-24T06:20:33;7.40;;;5.60;;
2031;SDS011;27625;50.422;7.944;2023-04-24T06:23:01;7.97;;;5.70;;
2031;SDS011;27625;50.422;7.944;2023-04-24T06:25:28;7.37;;;5.83;;
2031;SDS011;27625;50.422;7.944;2023-04-24T06:28:04;6.23;;;5.60;;
2031;SDS011;27625;50.422;7.944;2023-04-24T06:30:31;6.43;;;5.70;;
2031;SDS011;27625;50.422;7.944;2023-04-24T06:32:58;7.40;;;6.10;;
2031;SDS011;27625;50.422;7.944;2023-04-24T06:35:25;7.17;;;5.80;;
2031;SDS011;27625;50.422;7.944;2023-04-24T06:37:52;7.70;;;5.70;;
2031;SDS011;27625;50.422;7.944;2023-04-24T06:40:21;11.17;;;6.40;;
2031;SDS011;27625;50.422;7.944;2023-04-24T06:42:48;8.07;;;5.83;;
2031;SDS011;27625;50.422;7.944;2023-04-24T06:45:16;7.60;;;5.33;;
2031;SDS011;27625;50.422;7.944;2023-04-24T06:50:15;6.90;;;5.80;;
2031;SDS011;27625;50.422;7.944;2023-04-24T06:52:48;7.27;;;5.97;;
2031;SDS011;27625;50.422;7.944;2023-04-24T06:55:14;7.23;;;5.80;;
2031;SDS011;27625;50.422;7.944;2023-04-24T06:57:42;7.17;;;6.47;;
2031;SDS011;27625;50.422;7.944;2023-04-24T07:00:10;7.43;;;5.70;;
2031;SDS011;27625;50.422;7.944;2023-04-24T07:02:40;6.93;;;5.50;;
2031;SDS011;27625;50.422;7.944;2023-04-24T07:05:13;7.63;;;6.30;;
2031;SDS011;27625;50.422;7.944;2023-04-24T07:07:42;6.97;;;5.30;;
2031;SDS011;27625;50.422;7.944;2023-04-24T07:10:10;9.90;;;6.53;;
2031;SDS011;27625;50.422;7.944;2023-04-24T07:12:39;7.57;;;5.97;;
2031;SDS011;27625;50.422;7.944;2023-04-24T07:15:06;6.90;;;5.53;;
2031;SDS011;27625;50.422;7.944;2023-04-24T07:17:35;6.83;;;5.50;;
2031;SDS011;27625;50.422;7.944;2023-04-24T07:20:11;6.00;;;5.27;;
2031;SDS011;27625;50.422;7.944;2023-04-24T07:22:39;6.97;;;5.60;;
2031;SDS011;27625;50.422;7.944;2023-04-24T07:25:09;5.63;;;4.90;;
2031;SDS011;27625;50.422;7.944;2023-04-24T07:27:37;5.93;;;5.33;;
2031;SDS011;27625;50.422;7.944;2023-04-24T07:30:09;8.40;;;5.70;;
2031;SDS011;27625;50.422;7.944;2023-04-24T07:32:38;7.20;;;5.30;;
2031;SDS011;27625;50.422;7.944;2023-04-24T07:35:05;7.57;;;5.20;;
2031;SDS011;27625;50.422;7.944;2023-04-24T07:37:34;6.10;;;4.97;;
2031;SDS011;27625;50.422;7.944;2023-04-24T07:40:03;6.63;;;4.60;;
2031;SDS011;27625;50.422;7.944;2023-04-24T07:42:30;6.40;;;5.03;;
2031;SDS011;27625;50.422;7.944;2023-04-24T07:45:00;5.83;;;4.90;;
2031;SDS011;27625;50.422;7.944;2023-04-24T07:47:28;5.83;;;4.97;;
2031;SDS011;27625;50.422;7.944;2023-04-24T07:49:57;6.40;;;4.70;;
2031;SDS011;27625;50.422;7.944;2023-04-24T07:52:24;7.33;;;5.90;;
2031;SDS011;27625;50.422;7.944;2023-04-24T07:54:54;6.23;;;5.10;;
2031;SDS011;27625;50.422;7.944;2023-04-24T07:57:23;5.80;;;4.40;;
2031;SDS011;27625;50.422;7.944;2023-04-24T07:59:50;5.50;;;4.43;;
2031;SDS011;27625;50.422;7.944;2023-04-24T08:02:19;5.07;;;4.30;;
2031;SDS011;27625;50.422;7.944;2023-04-24T08:04:54;7.10;;;4.57;;
2031;SDS011;27625;50.422;7.944;2023-04-24T08:07:21;5.93;;;4.47;;
2031;SDS011;27625;50.422;7.944;2023-04-24T08:09:49;5.40;;;4.03;;
2031;SDS011;27625;50.422;7.944;2023-04-24T08:12:17;6.03;;;4.47;;
2031;SDS011;27625;50.422;7.944;2023-04-24T08:14:44;6.57;;;4.33;;
2031;SDS011;27625;50.422;7.944;2023-04-24T08:17:11;4.43;;;3.67;;
2031;SDS011;27625;50.422;7.944;2023-04-24T08:19:40;4.90;;;3.50;;
2031;SDS011;27625;50.422;7.944;2023-04-24T08:22:12;4.87;;;4.00;;
2031;SDS011;27625;50.422;7.944;2023-04-24T08:24:41;3.97;;;3.10;;
2031;SDS011;27625;50.422;7.944;2023-04-24T08:27:09;4.93;;;3.50;;
2031;SDS011;27625;50.422;7.944;2023-04-24T08:29:37;4.57;;;3.57;;
2031;SDS011;27625;50.422;7.944;2023-04-24T08:32:03;5.10;;;3.77;;
2031;SDS011;27625;50.422;7.944;2023-04-24T08:34:33;5.10;;;3.60;;
2031;SDS011;27625;50.422;7.944;2023-04-24T08:37:02;9.97;;;6.33;;
2031;SDS011;27625;50.422;7.944;2023-04-24T08:39:29;4.10;;;3.07;;
2031;SDS011;27625;50.422;7.944;2023-04-24T08:41:57;3.93;;;3.13;;
2031;SDS011;27625;50.422;7.944;2023-04-24T08:44:30;5.13;;;3.40;;
2031;SDS011;27625;50.422;7.944;2023-04-24T08:47:09;4.90;;;3.20;;
2031;SDS011;27625;50.422;7.944;2023-04-24T08:49:41;4.83;;;3.43;;
2031;SDS011;27625;50.422;7.944;2023-04-24T08:52:10;4.00;;;2.87;;
2031;SDS011;27625;50.422;7.944;2023-04-24T08:54:39;5.03;;;3.40;;
2031;SDS011;27625;50.422;7.944;2023-04-24T08:57:08;3.83;;;3.20;;
2031;SDS011;27625;50.422;7.944;2023-04-24T08:59:36;10.40;;;8.10;;
2031;SDS011;27625;50.422;7.944;2023-04-24T09:02:18;4.57;;;3.10;;
2031;SDS011;27625;50.422;7.944;2023-04-24T09:04:48;3.70;;;2.93;;
2031;SDS011;27625;50.422;7.944;2023-04-24T09:07:16;4.80;;;3.33;;
2031;SDS011;27625;50.422;7.944;2023-04-24T09:09:49;4.67;;;3.40;;
2031;SDS011;27625;50.422;7.944;2023-04-24T09:12:16;4.90;;;3.47;;
2031;SDS011;27625;50.422;7.944;2023-04-24T09:14:44;4.30;;;3.13;;
2031;SDS011;27625;50.422;7.944;2023-04-24T09:19:45;4.20;;;3.27;;
2031;SDS011;27625;50.422;7.944;2023-04-24T09:22:13;5.00;;;3.07;;
2031;SDS011;27625;50.422;7.944;2023-04-24T09:24:42;4.43;;;2.83;;
2031;SDS011;27625;50.422;7.944;2023-04-24T09:27:10;4.27;;;2.90;;
2031;SDS011;27625;50.422;7.944;2023-04-24T09:29:38;3.67;;;2.70;;
2031;SDS011;27625;50.422;7.944;2023-04-24T09:35:07;3.93;;;2.90;;
2031;SDS011;27625;50.422;7.944;2023-04-24T09:37:35;3.40;;;2.60;;
2031;SDS011;27625;50.422;7.944;2023-04-24T09:40:13;5.30;;;3.27;;
2031;SDS011;27625;50.422;7.944;2023-04-24T09:45:13;3.10;;;2.50;;
2031;SDS011;27625;50.422;7.944;2023-04-24T09:47:42;4.60;;;2.60;;
2031;SDS011;27625;50.422;7.944;2023-04-24T09:50:12;3.97;;;2.47;;
2031;SDS011;27625;50.422;7.944;2023-04-24T09:52:43;5.03;;;2.70;;
2031;SDS011;27625;50.422;7.944;2023-04-24T09:55:18;10.40;;;4.50;;
2031;SDS011;27625;50.422;7.944;2023-04-24T09:57:53;12.47;;;3.57;;
2031;SDS011;27625;50.422;7.944;2023-04-24T10:00:21;8.33;;;4.17;;
2031;SDS011;27625;50.422;7.944;2023-04-24T10:02:55;4.23;;;2.83;;
2031;SDS011;27625;50.422;7.944;2023-04-24T10:05:26;3.83;;;2.33;;
2031;SDS011;27625;50.422;7.944;2023-04-24T10:10:29;4.07;;;3.10;;
2031;SDS011;27625;50.422;7.944;2023-04-24T10:15:38;2.80;;;2.27;;
2031;SDS011;27625;50.422;7.944;2023-04-24T10:18:08;4.00;;;1.90;;
2031;SDS011;27625;50.422;7.944;2023-04-24T10:20:40;2.83;;;2.13;;
2031;SDS011;27625;50.422;7.944;2023-04-24T10:23:07;4.00;;;2.20;;
2031;SDS011;27625;50.422;7.944;2023-04-24T10:25:41;3.80;;;2.57;;
2031;SDS011;27625;50.422;7.944;2023-04-24T10:28:09;3.70;;;2.67;;
2031;SDS011;27625;50.422;7.944;2023-04-24T10:33:09;3.37;;;2.57;;
2031;SDS011;27625;50.422;7.944;2023-04-24T10:35:41;3.87;;;2.37;;
2031;SDS011;27625;50.422;7.944;2023-04-24T10:38:17;2.90;;;2.10;;
2031;SDS011;27625;50.422;7.944;2023-04-24T10:40:51;3.10;;;2.07;;
2031;SDS011;27625;50.422;7.944;2023-04-24T10:43:18;2.87;;;2.10;;
2031;SDS011;27625;50.422;7.944;2023-04-24T10:48:31;2.87;;;2.20;;
2031;SDS011;27625;50.422;7.944;2023-04-24T10:51:10;4.10;;;2.27;;
2031;SDS011;27625;50.422;7.944;2023-04-24T10:53:39;3.37;;;2.17;;
2031;SDS011;27625;50.422;7.944;2023-04-24T10:56:21;3.83;;;3.20;;
2031;SDS011;27625;50.422;7.944;2023-04-24T10:58:54;3.10;;;2.03;;
2031;SDS011;27625;50.422;7.944;2023-04-24T11:01:23;3.33;;;2.27;;
2031;SDS011;27625;50.422;7.944;2023-04-24T11:03:56;3.63;;;2.70;;
2031;SDS011;27625;50.422;7.944;2023-04-24T11:09:03;3.40;;;2.57;;
2031;SDS011;27625;50.422;7.944;2023-04-24T11:11:31;4.00;;;3.00;;
2031;SDS011;27625;50.422;7.944;2023-04-24T11:14:04;4.57;;;2.90;;
2031;SDS011;27625;50.422;7.944;2023-04-24T11:16:43;6.70;;;3.00;;
2031;SDS011;27625;50.422;7.944;2023-04-24T11:19:17;10.20;;;4.17;;
2031;SDS011;27625;50.422;7.944;2023-04-24T11:24:27;7.03;;;3.30;;
2031;SDS011;27625;50.422;7.944;2023-04-24T11:27:05;4.40;;;2.90;;
2031;SDS011;27625;50.422;7.944;2023-04-24T11:29:44;8.30;;;3.30;;
2031;SDS011;27625;50.422;7.944;2023-04-24T11:32:26;6.07;;;3.30;;
2031;SDS011;27625;50.422;7.944;2023-04-24T11:34:55;4.97;;;3.60;;
2031;SDS011;27625;50.422;7.944;2023-04-24T11:37:26;6.10;;;3.30;;
2031;SDS011;27625;50.422;7.944;2023-04-24T11:39:56;4.10;;;3.10;;
2031;SDS011;27625;50.422;7.944;2023-04-24T11:42:25;4.73;;;2.93;;
2031;SDS011;27625;50.422;7.944;2023-04-24T11:44:54;4.50;;;3.30;;
2031;SDS011;27625;50.422;7.944;2023-04-24T11:47:31;3.97;;;2.47;;
2031;SDS011;27625;50.422;7.944;2023-04-24T11:50:00;5.43;;;3.07;;
2031;SDS011;27625;50.422;7.944;2023-04-24T11:52:31;5.10;;;3.27;;
2031;SDS011;27625;50.422;7.944;2023-04-24T11:54:58;3.83;;;2.80;;
2031;SDS011;27625;50.422;7.944;2023-04-24T11:57:25;4.70;;;2.87;;
2031;SDS011;27625;50.422;7.944;2023-04-24T11:59:57;2.40;;;1.67;;
2031;SDS011;27625;50.422;7.944;2023-04-24T12:02:25;3.60;;;2.20;;
2031;SDS011;27625;50.422;7.944;2023-04-24T12:04:58;11.83;;;2.60;;
2031;SDS011;27625;50.422;7.944;2023-04-24T12:07:27;3.77;;;2.63;;
2031;SDS011;27625;50.422;7.944;2023-04-24T12:09:59;4.90;;;2.43;;
2031;SDS011;27625;50.422;7.944;2023-04-24T12:12:26;3.47;;;2.40;;
2031;SDS011;27625;50.422;7.944;2023-04-24T12:14:55;4.23;;;2.57;;
2031;SDS011;27625;50.422;7.944;2023-04-24T12:17:26;4.10;;;2.73;;
2031;SDS011;27625;50.422;7.944;2023-04-24T12:19:56;4.43;;;2.97;;
2031;SDS011;27625;50.422;7.944;2023-04-24T12:22:28;4.10;;;3.20;;
2031;SDS011;27625;50.422;7.944;2023-04-24T12:24:59;5.40;;;3.60;;
2031;SDS011;27625;50.422;7.944;2023-04-24T12:27:30;7.07;;;4.50;;
2031;SDS011;27625;50.422;7.944;2023-04-24T12:30:01;5.40;;;3.70;;
2031;SDS011;27625;50.422;7.944;2023-04-24T12:32:31;4.67;;;3.50;;
2031;SDS011;27625;50.422;7.944;2023-04-24T12:35:10;4.83;;;4.03;;
2031;SDS011;27625;50.422;7.944;2023-04-24T12:37:42;6.40;;;4.97;;
2031;SDS011;27625;50.422;7.944;2023-04-24T12:40:18;7.23;;;4.93;;
2031;SDS011;27625;50.422;7.944;2023-04-24T12:42:46;7.50;;;5.67;;
2031;SDS011;27625;50.422;7.944;2023-04-24T12:45:19;7.97;;;5.70;;
2031;SDS011;27625;50.422;7.944;2023-04-24T12:47:49;7.90;;;5.93;;
2031;SDS011;27625;50.422;7.944;2023-04-24T12:50:17;7.37;;;5.40;;
2031;SDS011;27625;50.422;7.944;2023-04-24T12:52:46;8.50;;;6.40;;
2031;SDS011;27625;50.422;7.944;2023-04-24T12:55:13;11.00;;;6.50;;
2031;SDS011;27625;50.422;7.944;2023-04-24T12:57:43;8.63;;;6.20;;
2031;SDS011;27625;50.422;7.944;2023-04-24T13:00:12;8.13;;;6.10;;
2031;SDS011;27625;50.422;7.944;2023-04-24T13:02:42;10.43;;;6.33;;
2031;SDS011;27625;50.422;7.944;2023-04-24T13:05:10;8.03;;;6.83;;
2031;SDS011;27625;50.422;7.944;2023-04-24T13:07:39;9.80;;;7.20;;
2031;SDS011;27625;50.422;7.944;2023-04-24T13:10:06;10.27;;;7.70;;
2031;SDS011;27625;50.422;7.944;2023-04-24T13:15:12;9.20;;;6.40;;
2031;SDS011;27625;50.422;7.944;2023-04-24T13:17:44;9.00;;;5.80;;
2031;SDS011;27625;50.422;7.944;2023-04-24T13:20:23;6.00;;;5.20;;
2031;SDS011;27625;50.422;7.944;2023-04-24T13:22:55;9.20;;;5.43;;
2031;SDS011;27625;50.422;7.944;2023-04-24T13:25:23;8.03;;;5.87;;
2031;SDS011;27625;50.422;7.944;2023-04-24T13:27:50;7.13;;;5.70;;
2031;SDS011;27625;50.422;7.944;2023-04-24T13:30:19;8.50;;;5.90;;
2031;SDS011;27625;50.422;7.944;2023-04-24T13:32:47;8.93;;;7.07;;
2031;SDS011;27625;50.422;7.944;2023-04-24T13:35:19;9.80;;;7.57;;
2031;SDS011;27625;50.422;7.944;2023-04-24T13:37:46;13.13;;;6.30;;
2031;SDS011;27625;50.422;7.944;2023-04-24T13:40:15;8.40;;;6.60;;
2031;SDS011;27625;50.422;7.944;2023-04-24T13:42:42;12.13;;;7.60;;
2031;SDS011;27625;50.422;7.944;2023-04-24T13:45:10;9.83;;;6.53;;
2031;SDS011;27625;50.422;7.944;2023-04-24T13:47:40;8.07;;;6.50;;
2031;SDS011;27625;50.422;7.944;2023-04-24T13:50:12;13.23;;;6.50;;
2031;SDS011;27625;50.422;7.944;2023-04-24T13:52:40;8.33;;;6.50;;
2031;SDS011;27625;50.422;7.944;2023-04-24T13:55:07;8.90;;;7.17;;
2031;SDS011;27625;50.422;7.944;2023-04-24T13:57:34;12.17;;;7.50;;
2031;SDS011;27625;50.422;7.944;2023-04-24T14:00:07;14.10;;;7.07;;
2031;SDS011;27625;50.422;7.944;2023-04-24T14:02:36;10.53;;;7.03;;
2031;SDS011;27625;50.422;7.944;2023-04-24T14:05:05;10.27;;;7.40;;
2031;SDS011;27625;50.422;7.944;2023-04-24T14:07:40;11.70;;;7.30;;
2031;SDS011;27625;50.422;7.944;2023-04-24T14:10:07;9.87;;;7.73;;
2031;SDS011;27625;50.422;7.944;2023-04-24T14:12:34;11.23;;;8.70;;
2031;SDS011;27625;50.422;7.944;2023-04-24T14:15:01;10.97;;;8.57;;
2031;SDS011;27625;50.422;7.944;2023-04-24T14:17:32;12.60;;;8.50;;
2031;SDS011;27625;50.422;7.944;2023-04-24T14:20:08;11.20;;;8.63;;
2031;SDS011;27625;50.422;7.944;2023-04-24T14:22:36;12.60;;;8.90;;
2031;SDS011;27625;50.422;7.944;2023-04-24T14:25:10;12.60;;;8.57;;
2031;SDS011;27625;50.422;7.944;2023-04-24T14:27:39;11.30;;;8.73;;
2031;SDS011;27625;50.422;7.944;2023-04-24T14:30:06;8.97;;;7.90;;
2031;SDS011;27625;50.422;7.944;2023-04-24T14:32:35;11.00;;;8.37;;
2031;SDS011;27625;50.422;7.944;2023-04-24T14:35:12;9.23;;;6.67;;
2031;SDS011;27625;50.422;7.944;2023-04-24T14:37:42;10.47;;;7.20;;
2031;SDS011;27625;50.422;7.944;2023-04-24T14:40:13;11.30;;;7.57;;
2031;SDS011;27625;50.422;7.944;2023-04-24T14:42:41;12.10;;;7.90;;
2031;SDS011;27625;50.422;7.944;2023-04-24T14:45:09;9.30;;;7.17;;
2031;SDS011;27625;50.422;7.944;2023-04-24T14:47:36;10.03;;;6.90;;
2031;SDS011;27625;50.422;7.944;2023-04-24T14:50:03;8.97;;;6.40;;
2031;SDS011;27625;50.422;7.944;2023-04-24T14:52:34;9.13;;;6.83;;
2031;SDS011;27625;50.422;7.944;2023-04-24T14:55:03;11.17;;;8.30;;
2031;SDS011;27625;50.422;7.944;2023-04-24T14:57:35;11.70;;;7.00;;
2031;SDS011;27625;50.422;7.944;2023-04-24T15:00:04;11.10;;;8.37;;
2031;SDS011;27625;50.422;7.944;2023-04-24T15:02:33;10.07;;;7.20;;
2031;SDS011;27625;50.422;7.944;2023-04-24T15:05:10;12.13;;;8.90;;
2031;SDS011;27625;50.422;7.944;2023-04-24T15:07:38;12.43;;;9.30;;
2031;SDS011;27625;50.422;7.944;2023-04-24T15:10:07;15.30;;;12.23;;
2031;SDS011;27625;50.422;7.944;2023-04-24T15:12:36;15.93;;;11.10;;
2031;SDS011;27625;50.422;7.944;2023-04-24T15:15:03;11.70;;;8.80;;
2031;SDS011;27625;50.422;7.944;2023-04-24T15:17:32;14.47;;;9.40;;
2031;SDS011;27625;50.422;7.944;2023-04-24T15:20:01;13.67;;;9.70;;
2031;SDS011;27625;50.422;7.944;2023-04-24T15:22:30;17.30;;;13.13;;
2031;SDS011;27625;50.422;7.944;2023-04-24T15:25:06;13.10;;;10.13;;
2031;SDS011;27625;50.422;7.944;2023-04-24T15:27:38;11.50;;;8.50;;
2031;SDS011;27625;50.422;7.944;2023-04-24T15:30:09;13.60;;;11.20;;
2031;SDS011;27625;50.422;7.944;2023-04-24T15:32:38;11.57;;;9.57;;
2031;SDS011;27625;50.422;7.944;2023-04-24T15:35:11;13.77;;;9.60;;
2031;SDS011;27625;50.422;7.944;2023-04-24T15:37:43;12.90;;;10.83;;
2031;SDS011;27625;50.422;7.944;2023-04-24T15:40:13;14.10;;;11.00;;
2031;SDS011;27625;50.422;7.944;2023-04-24T15:42:42;13.57;;;9.97;;
2031;SDS011;27625;50.422;7.944;2023-04-24T15:45:09;11.43;;;10.07;;
2031;SDS011;27625;50.422;7.944;2023-04-24T15:47:47;14.57;;;8.20;;
2031;SDS011;27625;50.422;7.944;2023-04-24T15:50:19;12.57;;;8.13;;
2031;SDS011;27625;50.422;7.944;2023-04-24T15:52:57;13.70;;;10.23;;
2031;SDS011;27625;50.422;7.944;2023-04-24T15:55:30;13.93;;;8.67;;
2031;SDS011;27625;50.422;7.944;2023-04-24T15:57:59;9.50;;;7.47;;
2031;SDS011;27625;50.422;7.944;2023-04-24T16:00:26;10.73;;;8.10;;
2031;SDS011;27625;50.422;7.944;2023-04-24T16:03:05;10.50;;;9.20;;